Airfield :
LOGIN :

Register | Disclaimer

   EN    FR    IT 

 










Legend :    VFR   Marginal VFR   IFR   Intensive IFR   Very Intensive IFR
Visi :
Ceiling :
>= 8 km
>= 3000ft
5 to 8 km
1000 to 3000 ft
1500m to 5 km
500 to 1000 ft
800 to 1500m
200 to 500 ft
< 800m
< 200 ft
Symbols :   Thunderstorms  Fog  Heavy snow  Heavy precipitations  Wind > 20 kt
SIGMETs :     Misc.  Thunderstorms  Icing  Turbulence  Mountain Waves  Volcanic Ashes







- Airport Elevation : 461 ft
- IATA code : WIE


ETOU - Wiesbaden Army

CURRENT METAR :
  • 230856Z AUTO 11005KT 9999 FEW130 BKN170 06/03 A2978 RMK AO2 SLP091 T00550033 53003

EXPIRED METARs :
  • 230756Z AUTO 09003KT 9999 BKN120 BKN150 05/03 A2977 RMK AO2 SLP088 T00500027
  • 230656Z AUTO 09003KT 9999 CLR 05/03 A2977 RMK AO2 SLP088 T00460025

TAF TAF ETOU
Valid from the 23 at 03:00 until the 24 at 09:00 UTC


230308Z 2303/2409 20009KT 9999 SKC QNH2971INS
BECMG 2309/2310 20012G20KT 9999 SCT050 510004 QNH2972INS
TEMPO 2311/2316 20015G25KT
BECMG 2317/2318 22012KT 8000 -SHRA BKN020 QNH2984INS
BECMG 2321/2322 21009KT 8000 -SHRA BKN020 QNH2984INS
BECMG 2405/2406 VRB06KT 8000 BR BKN020 QNH2984INS TX14/2312Z TN00/2304Z
No reported NOTAMs for that airfield.
1 SIGMET reported for the Langen FIR (EDGG) :
 
Severe turbulence
EDGG SIGMET 1 VALID 230645/231000 EDZF
EDGG LANGEN FIR SEV TURB FCST APRX 80NM WID LINE BTN N4912 E00644 - N5116 E01021 2000FT/5000FT STNR NC=



MET'MAP, your aeronautical weather chart ! - Copyright ORBIFLY December 2007 - Disclaimer

ORBIFLY MET'MAP TEAM :

Programming & Development : Alexandra Zaïnal
Concept & Development : Baudouin d'Aumeries
Co-Development & Prog : Marc-Olivier Méhu
Technical & hardware support : Manuel Goepfert

Contact : metmap@orbifly.com




SOURCES & CREDITS :

   NOAA